sensor_id;sensor_type;location;lat;lon;timestamp;temperature;humidity
17200;DHT22;8716;52.268;20.968;2023-05-19T00:02:08;12.90;99.90
17200;DHT22;8716;52.268;20.968;2023-05-19T00:04:37;12.80;99.90
17200;DHT22;8716;52.268;20.968;2023-05-19T00:07:09;12.80;99.90
17200;DHT22;8716;52.268;20.968;2023-05-19T00:09:38;12.80;99.90
17200;DHT22;8716;52.268;20.968;2023-05-19T00:12:07;12.80;99.90
17200;DHT22;8716;52.268;20.968;2023-05-19T00:14:37;12.80;99.90
17200;DHT22;8716;52.268;20.968;2023-05-19T00:17:06;12.70;99.90
17200;DHT22;8716;52.268;20.968;2023-05-19T00:19:36;12.70;99.90
17200;DHT22;8716;52.268;20.968;2023-05-19T00:22:05;12.70;99.90
17200;DHT22;8716;52.268;20.968;2023-05-19T00:24:33;12.60;99.90
17200;DHT22;8716;52.268;20.968;2023-05-19T00:27:01;12.70;99.90
17200;DHT22;8716;52.268;20.968;2023-05-19T00:29:30;12.70;99.90
17200;DHT22;8716;52.268;20.968;2023-05-19T00:31:58;12.70;99.90
17200;DHT22;8716;52.268;20.968;2023-05-19T00:34:29;12.70;99.90
17200;DHT22;8716;52.268;20.968;2023-05-19T00:36:58;12.70;99.90
17200;DHT22;8716;52.268;20.968;2023-05-19T00:39:27;12.70;99.90
17200;DHT22;8716;52.268;20.968;2023-05-19T00:41:55;12.70;99.90
17200;DHT22;8716;52.268;20.968;2023-05-19T00:44:23;12.60;99.90
17200;DHT22;8716;52.268;20.968;2023-05-19T00:46:51;12.60;99.90
17200;DHT22;8716;52.268;20.968;2023-05-19T00:49:20;12.60;99.90
17200;DHT22;8716;52.268;20.968;2023-05-19T00:51:51;12.60;99.90
17200;DHT22;8716;52.268;20.968;2023-05-19T00:54:21;12.60;99.90
17200;DHT22;8716;52.268;20.968;2023-05-19T00:56:49;12.50;99.90
17200;DHT22;8716;52.268;20.968;2023-05-19T00:59:17;12.50;99.90
17200;DHT22;8716;52.268;20.968;2023-05-19T01:01:46;12.50;99.90
17200;DHT22;8716;52.268;20.968;2023-05-19T01:04:17;12.50;99.90
17200;DHT22;8716;52.268;20.968;2023-05-19T01:06:46;12.50;99.90
17200;DHT22;8716;52.268;20.968;2023-05-19T01:09:15;12.50;99.90
17200;DHT22;8716;52.268;20.968;2023-05-19T01:11:45;12.50;99.90
17200;DHT22;8716;52.268;20.968;2023-05-19T01:14:14;12.50;99.90
17200;DHT22;8716;52.268;20.968;2023-05-19T01:16:49;12.50;99.90
17200;DHT22;8716;52.268;20.968;2023-05-19T01:19:30;12.50;99.90
17200;DHT22;8716;52.268;20.968;2023-05-19T01:22:17;12.50;99.90
17200;DHT22;8716;52.268;20.968;2023-05-19T01:25:13;12.50;99.90
17200;DHT22;8716;52.268;20.968;2023-05-19T01:30:53;12.40;99.90
17200;DHT22;8716;52.268;20.968;2023-05-19T01:33:23;12.40;99.90
17200;DHT22;8716;52.268;20.968;2023-05-19T01:35:52;12.40;99.90
17200;DHT22;8716;52.268;20.968;2023-05-19T01:38:24;12.40;99.90
17200;DHT22;8716;52.268;20.968;2023-05-19T01:40:53;12.40;99.90
17200;DHT22;8716;52.268;20.968;2023-05-19T01:43:24;12.40;99.90
17200;DHT22;8716;52.268;20.968;2023-05-19T01:45:54;12.40;99.90
17200;DHT22;8716;52.268;20.968;2023-05-19T01:48:27;12.30;99.90
17200;DHT22;8716;52.268;20.968;2023-05-19T01:50:56;12.30;99.90
17200;DHT22;8716;52.268;20.968;2023-05-19T01:53:25;12.30;99.90
17200;DHT22;8716;52.268;20.968;2023-05-19T01:55:55;12.30;99.90
17200;DHT22;8716;52.268;20.968;2023-05-19T01:58:30;12.30;99.90
17200;DHT22;8716;52.268;20.968;2023-05-19T02:01:05;12.20;99.90
17200;DHT22;8716;52.268;20.968;2023-05-19T02:03:47;12.20;99.90
17200;DHT22;8716;52.268;20.968;2023-05-19T02:06:28;12.20;99.90
17200;DHT22;8716;52.268;20.968;2023-05-19T02:09:02;12.20;99.90
17200;DHT22;8716;52.268;20.968;2023-05-19T02:11:36;12.30;99.90
17200;DHT22;8716;52.268;20.968;2023-05-19T02:14:11;12.30;99.90
17200;DHT22;8716;52.268;20.968;2023-05-19T02:16:44;12.30;99.90
17200;DHT22;8716;52.268;20.968;2023-05-19T02:19:22;12.30;99.90
17200;DHT22;8716;52.268;20.968;2023-05-19T02:21:51;12.30;99.90
17200;DHT22;8716;52.268;20.968;2023-05-19T02:24:20;12.30;99.90
17200;DHT22;8716;52.268;20.968;2023-05-19T02:26:50;12.30;99.90
17200;DHT22;8716;52.268;20.968;2023-05-19T02:29:19;12.30;99.90
17200;DHT22;8716;52.268;20.968;2023-05-19T02:31:50;12.30;99.90
17200;DHT22;8716;52.268;20.968;2023-05-19T02:34:19;12.30;99.90
17200;DHT22;8716;52.268;20.968;2023-05-19T02:36:47;12.30;99.90
17200;DHT22;8716;52.268;20.968;2023-05-19T02:39:16;12.30;99.90
17200;DHT22;8716;52.268;20.968;2023-05-19T02:41:46;12.30;99.90
17200;DHT22;8716;52.268;20.968;2023-05-19T02:44:16;12.30;99.90
17200;DHT22;8716;52.268;20.968;2023-05-19T02:46:44;12.30;99.90
17200;DHT22;8716;52.268;20.968;2023-05-19T02:49:14;12.30;99.90
17200;DHT22;8716;52.268;20.968;2023-05-19T02:51:43;12.20;99.90
17200;DHT22;8716;52.268;20.968;2023-05-19T02:54:11;12.20;99.90
17200;DHT22;8716;52.268;20.968;2023-05-19T02:56:39;12.20;99.90
17200;DHT22;8716;52.268;20.968;2023-05-19T02:59:07;12.20;99.90
17200;DHT22;8716;52.268;20.968;2023-05-19T03:01:36;12.20;99.90
17200;DHT22;8716;52.268;20.968;2023-05-19T03:04:06;12.20;99.90
17200;DHT22;8716;52.268;20.968;2023-05-19T03:06:35;12.20;99.90
17200;DHT22;8716;52.268;20.968;2023-05-19T03:09:04;12.20;99.90
17200;DHT22;8716;52.268;20.968;2023-05-19T03:11:33;12.20;99.90
17200;DHT22;8716;52.268;20.968;2023-05-19T03:14:01;12.20;99.90
17200;DHT22;8716;52.268;20.968;2023-05-19T03:16:30;12.20;99.90
17200;DHT22;8716;52.268;20.968;2023-05-19T03:18:58;12.20;99.90
17200;DHT22;8716;52.268;20.968;2023-05-19T03:21:26;12.20;99.90
17200;DHT22;8716;52.268;20.968;2023-05-19T03:23:57;12.20;99.90
17200;DHT22;8716;52.268;20.968;2023-05-19T03:26:26;12.20;99.90
17200;DHT22;8716;52.268;20.968;2023-05-19T03:28:55;12.20;99.90
17200;DHT22;8716;52.268;20.968;2023-05-19T03:31:24;12.30;99.90
17200;DHT22;8716;52.268;20.968;2023-05-19T03:33:52;12.30;99.90
17200;DHT22;8716;52.268;20.968;2023-05-19T03:36:24;12.30;99.90
17200;DHT22;8716;52.268;20.968;2023-05-19T03:39:00;12.30;99.90
17200;DHT22;8716;52.268;20.968;2023-05-19T03:41:29;12.30;99.90
17200;DHT22;8716;52.268;20.968;2023-05-19T03:43:57;12.30;99.90
17200;DHT22;8716;52.268;20.968;2023-05-19T03:46:25;12.40;99.90
17200;DHT22;8716;52.268;20.968;2023-05-19T03:49:12;12.40;99.90
17200;DHT22;8716;52.268;20.968;2023-05-19T03:51:59;12.40;99.90
17200;DHT22;8716;52.268;20.968;2023-05-19T03:54:48;12.50;99.90
17200;DHT22;8716;52.268;20.968;2023-05-19T03:57:18;12.50;99.90
17200;DHT22;8716;52.268;20.968;2023-05-19T03:59:47;12.50;99.90
17200;DHT22;8716;52.268;20.968;2023-05-19T04:02:15;12.40;99.90
17200;DHT22;8716;52.268;20.968;2023-05-19T04:04:43;12.50;99.90
17200;DHT22;8716;52.268;20.968;2023-05-19T04:07:12;12.50;99.90
17200;DHT22;8716;52.268;20.968;2023-05-19T04:09:41;12.50;99.90
17200;DHT22;8716;52.268;20.968;2023-05-19T04:12:10;12.50;99.90
17200;DHT22;8716;52.268;20.968;2023-05-19T04:14:39;12.50;99.90
17200;DHT22;8716;52.268;20.968;2023-05-19T04:17:09;12.50;99.90
17200;DHT22;8716;52.268;20.968;2023-05-19T04:19:37;12.50;99.90
17200;DHT22;8716;52.268;20.968;2023-05-19T04:22:06;12.50;99.90
17200;DHT22;8716;52.268;20.968;2023-05-19T04:24:34;12.50;99.90
17200;DHT22;8716;52.268;20.968;2023-05-19T04:27:03;12.50;99.90
17200;DHT22;8716;52.268;20.968;2023-05-19T04:29:32;12.50;99.90
17200;DHT22;8716;52.268;20.968;2023-05-19T04:32:01;12.50;99.90
17200;DHT22;8716;52.268;20.968;2023-05-19T04:34:35;12.50;99.90
17200;DHT22;8716;52.268;20.968;2023-05-19T04:37:07;12.50;99.90
17200;DHT22;8716;52.268;20.968;2023-05-19T04:39:36;12.60;99.90
17200;DHT22;8716;52.268;20.968;2023-05-19T04:42:07;12.50;99.90
17200;DHT22;8716;52.268;20.968;2023-05-19T04:44:40;12.50;99.90
17200;DHT22;8716;52.268;20.968;2023-05-19T04:47:08;12.50;99.90
17200;DHT22;8716;52.268;20.968;2023-05-19T04:49:40;12.50;99.90
17200;DHT22;8716;52.268;20.968;2023-05-19T04:52:09;12.60;99.90
17200;DHT22;8716;52.268;20.968;2023-05-19T04:54:39;12.60;99.90
17200;DHT22;8716;52.268;20.968;2023-05-19T04:57:10;12.60;99.90
17200;DHT22;8716;52.268;20.968;2023-05-19T04:59:40;12.60;99.90
17200;DHT22;8716;52.268;20.968;2023-05-19T05:02:09;12.60;99.90
17200;DHT22;8716;52.268;20.968;2023-05-19T05:04:40;12.70;99.90
17200;DHT22;8716;52.268;20.968;2023-05-19T05:07:10;12.70;99.90
17200;DHT22;8716;52.268;20.968;2023-05-19T05:09:38;12.70;99.90
17200;DHT22;8716;52.268;20.968;2023-05-19T05:12:08;12.70;99.90
17200;DHT22;8716;52.268;20.968;2023-05-19T05:14:40;12.80;99.90
17200;DHT22;8716;52.268;20.968;2023-05-19T05:17:12;12.80;99.90
17200;DHT22;8716;52.268;20.968;2023-05-19T05:19:41;12.80;99.90
17200;DHT22;8716;52.268;20.968;2023-05-19T05:22:11;12.80;99.90
17200;DHT22;8716;52.268;20.968;2023-05-19T05:24:40;12.80;99.90
17200;DHT22;8716;52.268;20.968;2023-05-19T05:27:08;12.80;99.90
17200;DHT22;8716;52.268;20.968;2023-05-19T05:29:41;12.80;99.90
17200;DHT22;8716;52.268;20.968;2023-05-19T05:32:09;12.90;99.90
17200;DHT22;8716;52.268;20.968;2023-05-19T05:34:40;12.90;99.90
17200;DHT22;8716;52.268;20.968;2023-05-19T05:37:10;12.90;99.90
17200;DHT22;8716;52.268;20.968;2023-05-19T05:39:41;12.90;99.90
17200;DHT22;8716;52.268;20.968;2023-05-19T05:42:09;12.90;99.90
17200;DHT22;8716;52.268;20.968;2023-05-19T05:44:40;12.90;99.90
17200;DHT22;8716;52.268;20.968;2023-05-19T05:47:10;13.00;99.90
17200;DHT22;8716;52.268;20.968;2023-05-19T05:49:41;13.00;99.90
17200;DHT22;8716;52.268;20.968;2023-05-19T05:52:11;13.00;99.90
17200;DHT22;8716;52.268;20.968;2023-05-19T05:54:45;13.00;99.90
17200;DHT22;8716;52.268;20.968;2023-05-19T05:57:15;13.00;99.90
17200;DHT22;8716;52.268;20.968;2023-05-19T05:59:45;13.00;99.90
17200;DHT22;8716;52.268;20.968;2023-05-19T06:02:14;13.00;99.90
17200;DHT22;8716;52.268;20.968;2023-05-19T06:04:45;13.00;99.90
17200;DHT22;8716;52.268;20.968;2023-05-19T06:07:13;13.00;99.90
17200;DHT22;8716;52.268;20.968;2023-05-19T06:09:43;13.10;99.90
17200;DHT22;8716;52.268;20.968;2023-05-19T06:12:12;13.10;99.90
17200;DHT22;8716;52.268;20.968;2023-05-19T06:14:46;13.20;99.90
17200;DHT22;8716;52.268;20.968;2023-05-19T06:17:44;13.10;99.90
17200;DHT22;8716;52.268;20.968;2023-05-19T06:20:13;13.20;99.90
17200;DHT22;8716;52.268;20.968;2023-05-19T06:22:42;13.20;99.90
17200;DHT22;8716;52.268;20.968;2023-05-19T06:25:11;13.20;99.90
17200;DHT22;8716;52.268;20.968;2023-05-19T06:27:41;13.20;99.90
17200;DHT22;8716;52.268;20.968;2023-05-19T06:30:11;13.30;99.90
17200;DHT22;8716;52.268;20.968;2023-05-19T06:32:50;13.30;99.90
17200;DHT22;8716;52.268;20.968;2023-05-19T06:35:19;13.30;99.90
17200;DHT22;8716;52.268;20.968;2023-05-19T06:37:47;13.40;99.90
17200;DHT22;8716;52.268;20.968;2023-05-19T06:40:15;13.40;99.90
17200;DHT22;8716;52.268;20.968;2023-05-19T06:42:44;13.40;99.90
17200;DHT22;8716;52.268;20.968;2023-05-19T06:45:23;13.40;99.90
17200;DHT22;8716;52.268;20.968;2023-05-19T06:47:51;13.40;99.90
17200;DHT22;8716;52.268;20.968;2023-05-19T06:50:20;13.50;99.90
17200;DHT22;8716;52.268;20.968;2023-05-19T06:52:49;13.50;99.90
17200;DHT22;8716;52.268;20.968;2023-05-19T06:55:17;13.50;99.90
17200;DHT22;8716;52.268;20.968;2023-05-19T06:57:47;13.50;99.90
17200;DHT22;8716;52.268;20.968;2023-05-19T07:00:18;13.50;99.90
17200;DHT22;8716;52.268;20.968;2023-05-19T07:02:52;13.50;99.90
17200;DHT22;8716;52.268;20.968;2023-05-19T07:05:21;13.60;99.90
17200;DHT22;8716;52.268;20.968;2023-05-19T07:07:54;13.60;99.90
17200;DHT22;8716;52.268;20.968;2023-05-19T07:10:25;13.60;99.90
17200;DHT22;8716;52.268;20.968;2023-05-19T07:12:54;13.60;99.90
17200;DHT22;8716;52.268;20.968;2023-05-19T07:15:27;13.60;99.90
17200;DHT22;8716;52.268;20.968;2023-05-19T07:17:57;13.60;99.90
17200;DHT22;8716;52.268;20.968;2023-05-19T07:20:25;13.70;99.90
17200;DHT22;8716;52.268;20.968;2023-05-19T07:22:54;13.70;99.90
17200;DHT22;8716;52.268;20.968;2023-05-19T07:25:22;13.70;99.90
17200;DHT22;8716;52.268;20.968;2023-05-19T07:27:52;13.70;99.90
17200;DHT22;8716;52.268;20.968;2023-05-19T07:30:20;13.70;99.90
17200;DHT22;8716;52.268;20.968;2023-05-19T07:32:48;13.80;99.90
17200;DHT22;8716;52.268;20.968;2023-05-19T07:35:19;13.80;99.90
17200;DHT22;8716;52.268;20.968;2023-05-19T07:37:51;13.90;99.90
17200;DHT22;8716;52.268;20.968;2023-05-19T07:40:19;13.80;99.90
17200;DHT22;8716;52.268;20.968;2023-05-19T07:42:48;13.80;99.90
17200;DHT22;8716;52.268;20.968;2023-05-19T07:45:17;13.80;99.90
17200;DHT22;8716;52.268;20.968;2023-05-19T07:47:45;13.80;99.90
17200;DHT22;8716;52.268;20.968;2023-05-19T07:50:13;13.90;99.90
17200;DHT22;8716;52.268;20.968;2023-05-19T07:52:43;14.00;99.90
17200;DHT22;8716;52.268;20.968;2023-05-19T07:55:11;14.00;99.90
17200;DHT22;8716;52.268;20.968;2023-05-19T07:57:40;14.00;99.90
17200;DHT22;8716;52.268;20.968;2023-05-19T08:00:09;14.00;99.90
17200;DHT22;8716;52.268;20.968;2023-05-19T08:02:40;14.10;99.90
17200;DHT22;8716;52.268;20.968;2023-05-19T08:05:08;14.10;99.90
17200;DHT22;8716;52.268;20.968;2023-05-19T08:07:37;14.10;99.90
17200;DHT22;8716;52.268;20.968;2023-05-19T08:10:07;14.10;99.90
17200;DHT22;8716;52.268;20.968;2023-05-19T08:12:38;14.10;99.90
17200;DHT22;8716;52.268;20.968;2023-05-19T08:15:07;14.10;99.90
17200;DHT22;8716;52.268;20.968;2023-05-19T08:17:37;14.20;99.90
17200;DHT22;8716;52.268;20.968;2023-05-19T08:20:06;14.20;99.90
17200;DHT22;8716;52.268;20.968;2023-05-19T08:22:36;14.20;99.90
17200;DHT22;8716;52.268;20.968;2023-05-19T08:25:05;14.10;99.90
17200;DHT22;8716;52.268;20.968;2023-05-19T08:27:34;14.20;99.90
17200;DHT22;8716;52.268;20.968;2023-05-19T08:30:03;14.20;99.90
17200;DHT22;8716;52.268;20.968;2023-05-19T08:32:32;14.10;99.90
17200;DHT22;8716;52.268;20.968;2023-05-19T08:35:00;14.10;99.90
17200;DHT22;8716;52.268;20.968;2023-05-19T08:37:29;14.10;99.90
17200;DHT22;8716;52.268;20.968;2023-05-19T08:40:00;14.10;99.90
17200;DHT22;8716;52.268;20.968;2023-05-19T08:42:30;14.10;99.90
17200;DHT22;8716;52.268;20.968;2023-05-19T08:45:01;14.10;99.90
17200;DHT22;8716;52.268;20.968;2023-05-19T08:47:32;14.10;99.90
17200;DHT22;8716;52.268;20.968;2023-05-19T08:50:03;14.10;99.90
17200;DHT22;8716;52.268;20.968;2023-05-19T08:52:40;14.20;99.90
17200;DHT22;8716;52.268;20.968;2023-05-19T08:55:35;14.20;99.90
17200;DHT22;8716;52.268;20.968;2023-05-19T08:58:03;14.20;99.90
17200;DHT22;8716;52.268;20.968;2023-05-19T09:00:33;14.30;99.90
17200;DHT22;8716;52.268;20.968;2023-05-19T09:03:03;14.30;99.90
17200;DHT22;8716;52.268;20.968;2023-05-19T09:05:37;14.40;99.90
17200;DHT22;8716;52.268;20.968;2023-05-19T09:08:06;14.40;99.90
17200;DHT22;8716;52.268;20.968;2023-05-19T09:10:38;14.50;99.90
17200;DHT22;8716;52.268;20.968;2023-05-19T09:13:06;14.50;99.90
17200;DHT22;8716;52.268;20.968;2023-05-19T09:15:38;14.60;99.90
17200;DHT22;8716;52.268;20.968;2023-05-19T09:18:08;14.60;99.90
17200;DHT22;8716;52.268;20.968;2023-05-19T09:20:37;14.60;99.90
17200;DHT22;8716;52.268;20.968;2023-05-19T09:23:10;14.60;99.90
17200;DHT22;8716;52.268;20.968;2023-05-19T09:25:46;14.70;99.90
17200;DHT22;8716;52.268;20.968;2023-05-19T09:28:22;14.70;99.90
17200;DHT22;8716;52.268;20.968;2023-05-19T09:30:59;14.80;99.90
17200;DHT22;8716;52.268;20.968;2023-05-19T09:33:28;14.90;99.90
17200;DHT22;8716;52.268;20.968;2023-05-19T09:35:57;14.90;99.90
17200;DHT22;8716;52.268;20.968;2023-05-19T09:38:26;14.90;99.90
17200;DHT22;8716;52.268;20.968;2023-05-19T09:40:56;15.00;99.90
17200;DHT22;8716;52.268;20.968;2023-05-19T09:43:26;15.10;99.90
17200;DHT22;8716;52.268;20.968;2023-05-19T09:46:01;15.10;99.90
17200;DHT22;8716;52.268;20.968;2023-05-19T09:48:30;15.10;99.90
17200;DHT22;8716;52.268;20.968;2023-05-19T09:51:00;15.10;99.90
17200;DHT22;8716;52.268;20.968;2023-05-19T09:53:29;15.20;99.90
17200;DHT22;8716;52.268;20.968;2023-05-19T09:56:00;15.30;99.90
17200;DHT22;8716;52.268;20.968;2023-05-19T09:58:30;15.30;99.90
17200;DHT22;8716;52.268;20.968;2023-05-19T10:01:02;15.30;99.90
17200;DHT22;8716;52.268;20.968;2023-05-19T10:03:33;15.40;99.90
17200;DHT22;8716;52.268;20.968;2023-05-19T10:06:03;15.40;99.90
17200;DHT22;8716;52.268;20.968;2023-05-19T10:08:33;15.50;99.90
17200;DHT22;8716;52.268;20.968;2023-05-19T10:11:02;15.50;99.90
17200;DHT22;8716;52.268;20.968;2023-05-19T10:13:31;15.50;99.90
17200;DHT22;8716;52.268;20.968;2023-05-19T10:16:02;15.50;99.90
17200;DHT22;8716;52.268;20.968;2023-05-19T10:18:32;15.50;99.90
17200;DHT22;8716;52.268;20.968;2023-05-19T10:21:05;15.50;99.90
17200;DHT22;8716;52.268;20.968;2023-05-19T10:23:34;15.50;99.90
17200;DHT22;8716;52.268;20.968;2023-05-19T10:26:05;15.50;99.90
17200;DHT22;8716;52.268;20.968;2023-05-19T10:28:37;15.60;99.90
17200;DHT22;8716;52.268;20.968;2023-05-19T10:31:10;15.60;99.90
17200;DHT22;8716;52.268;20.968;2023-05-19T10:33:52;15.80;99.90
17200;DHT22;8716;52.268;20.968;2023-05-19T10:36:32;15.90;99.90
17200;DHT22;8716;52.268;20.968;2023-05-19T10:39:10;15.90;99.90
17200;DHT22;8716;52.268;20.968;2023-05-19T10:41:46;16.10;99.90
17200;DHT22;8716;52.268;20.968;2023-05-19T10:44:27;16.10;99.90
17200;DHT22;8716;52.268;20.968;2023-05-19T10:46:58;16.20;99.90
17200;DHT22;8716;52.268;20.968;2023-05-19T10:49:27;16.20;99.90
17200;DHT22;8716;52.268;20.968;2023-05-19T10:51:55;16.20;99.90
17200;DHT22;8716;52.268;20.968;2023-05-19T10:54:38;16.30;99.90
17200;DHT22;8716;52.268;20.968;2023-05-19T10:57:13;16.30;99.90
17200;DHT22;8716;52.268;20.968;2023-05-19T10:59:42;16.40;99.90
17200;DHT22;8716;52.268;20.968;2023-05-19T11:02:36;16.50;99.90
17200;DHT22;8716;52.268;20.968;2023-05-19T11:05:08;16.60;99.90
17200;DHT22;8716;52.268;20.968;2023-05-19T11:07:40;16.60;99.90
17200;DHT22;8716;52.268;20.968;2023-05-19T11:10:10;16.80;99.90
17200;DHT22;8716;52.268;20.968;2023-05-19T11:12:41;16.90;99.90
17200;DHT22;8716;52.268;20.968;2023-05-19T11:15:11;16.90;99.90
17200;DHT22;8716;52.268;20.968;2023-05-19T11:17:47;17.10;99.90
17200;DHT22;8716;52.268;20.968;2023-05-19T11:20:22;17.20;99.90
17200;DHT22;8716;52.268;20.968;2023-05-19T11:23:04;17.20;99.90
17200;DHT22;8716;52.268;20.968;2023-05-19T11:25:43;17.30;99.90
17200;DHT22;8716;52.268;20.968;2023-05-19T11:28:15;17.40;99.90
17200;DHT22;8716;52.268;20.968;2023-05-19T11:30:47;17.40;99.90
17200;DHT22;8716;52.268;20.968;2023-05-19T11:33:20;17.40;99.90
17200;DHT22;8716;52.268;20.968;2023-05-19T11:35:54;17.30;99.90
17200;DHT22;8716;52.268;20.968;2023-05-19T11:38:27;17.30;99.90
17200;DHT22;8716;52.268;20.968;2023-05-19T11:40:56;17.30;99.90
17200;DHT22;8716;52.268;20.968;2023-05-19T11:43:25;17.20;99.90
17200;DHT22;8716;52.268;20.968;2023-05-19T11:45:53;17.20;99.90
17200;DHT22;8716;52.268;20.968;2023-05-19T11:48:23;17.20;99.90
17200;DHT22;8716;52.268;20.968;2023-05-19T11:50:55;17.30;99.90
17200;DHT22;8716;52.268;20.968;2023-05-19T11:53:23;17.30;99.90
17200;DHT22;8716;52.268;20.968;2023-05-19T11:55:51;17.30;99.90
17200;DHT22;8716;52.268;20.968;2023-05-19T11:58:24;17.30;99.90
17200;DHT22;8716;52.268;20.968;2023-05-19T12:00:53;17.40;99.90
17200;DHT22;8716;52.268;20.968;2023-05-19T12:03:23;17.40;99.90
17200;DHT22;8716;52.268;20.968;2023-05-19T12:05:54;17.40;99.90
17200;DHT22;8716;52.268;20.968;2023-05-19T12:08:23;17.40;99.90
17200;DHT22;8716;52.268;20.968;2023-05-19T12:10:53;17.30;99.90
17200;DHT22;8716;52.268;20.968;2023-05-19T12:13:22;17.30;99.90
17200;DHT22;8716;52.268;20.968;2023-05-19T12:15:50;17.30;99.90
17200;DHT22;8716;52.268;20.968;2023-05-19T12:18:19;17.30;99.90
17200;DHT22;8716;52.268;20.968;2023-05-19T12:20:49;17.30;99.90
17200;DHT22;8716;52.268;20.968;2023-05-19T12:23:21;17.30;99.90
17200;DHT22;8716;52.268;20.968;2023-05-19T12:25:50;17.40;99.90
17200;DHT22;8716;52.268;20.968;2023-05-19T12:28:19;17.40;99.90
17200;DHT22;8716;52.268;20.968;2023-05-19T12:30:50;17.40;99.90
17200;DHT22;8716;52.268;20.968;2023-05-19T12:33:18;17.40;99.90
17200;DHT22;8716;52.268;20.968;2023-05-19T12:35:49;17.40;99.90
17200;DHT22;8716;52.268;20.968;2023-05-19T12:38:18;17.40;99.90
17200;DHT22;8716;52.268;20.968;2023-05-19T12:40:49;17.50;99.90
17200;DHT22;8716;52.268;20.968;2023-05-19T12:43:19;17.50;99.90
17200;DHT22;8716;52.268;20.968;2023-05-19T12:45:48;17.50;99.90
17200;DHT22;8716;52.268;20.968;2023-05-19T12:48:21;17.60;99.90
17200;DHT22;8716;52.268;20.968;2023-05-19T12:50:52;17.50;99.90
17200;DHT22;8716;52.268;20.968;2023-05-19T12:53:21;17.60;99.90
17200;DHT22;8716;52.268;20.968;2023-05-19T12:55:51;17.60;99.90
17200;DHT22;8716;52.268;20.968;2023-05-19T12:58:20;17.60;99.90
17200;DHT22;8716;52.268;20.968;2023-05-19T13:00:49;17.60;99.90
17200;DHT22;8716;52.268;20.968;2023-05-19T13:03:19;17.60;99.90
17200;DHT22;8716;52.268;20.968;2023-05-19T13:05:49;17.60;99.90
17200;DHT22;8716;52.268;20.968;2023-05-19T13:08:20;17.60;99.90
17200;DHT22;8716;52.268;20.968;2023-05-19T13:10:50;17.60;99.90
17200;DHT22;8716;52.268;20.968;2023-05-19T13:13:18;17.60;99.90
17200;DHT22;8716;52.268;20.968;2023-05-19T13:15:47;17.60;99.90
17200;DHT22;8716;52.268;20.968;2023-05-19T13:18:16;17.50;99.90
17200;DHT22;8716;52.268;20.968;2023-05-19T13:20:45;17.50;99.90
17200;DHT22;8716;52.268;20.968;2023-05-19T13:23:20;17.50;99.90
17200;DHT22;8716;52.268;20.968;2023-05-19T13:25:51;17.50;99.90
17200;DHT22;8716;52.268;20.968;2023-05-19T13:28:19;17.50;99.90
17200;DHT22;8716;52.268;20.968;2023-05-19T13:30:48;17.50;99.90
17200;DHT22;8716;52.268;20.968;2023-05-19T13:33:19;17.50;99.90
17200;DHT22;8716;52.268;20.968;2023-05-19T13:35:47;17.50;99.90
17200;DHT22;8716;52.268;20.968;2023-05-19T13:38:15;17.50;99.90
17200;DHT22;8716;52.268;20.968;2023-05-19T13:40:45;17.40;99.90
17200;DHT22;8716;52.268;20.968;2023-05-19T13:43:14;17.40;99.90
17200;DHT22;8716;52.268;20.968;2023-05-19T13:45:42;17.30;99.90
17200;DHT22;8716;52.268;20.968;2023-05-19T13:48:11;17.30;99.90
17200;DHT22;8716;52.268;20.968;2023-05-19T13:50:39;17.30;99.90
17200;DHT22;8716;52.268;20.968;2023-05-19T13:53:08;17.30;99.90
17200;DHT22;8716;52.268;20.968;2023-05-19T13:55:37;17.30;99.90
17200;DHT22;8716;52.268;20.968;2023-05-19T13:58:07;17.30;99.90
17200;DHT22;8716;52.268;20.968;2023-05-19T14:00:37;17.30;99.90
17200;DHT22;8716;52.268;20.968;2023-05-19T14:03:05;17.30;99.90
17200;DHT22;8716;52.268;20.968;2023-05-19T14:05:34;17.30;99.90
17200;DHT22;8716;52.268;20.968;2023-05-19T14:08:05;17.30;99.90
17200;DHT22;8716;52.268;20.968;2023-05-19T14:10:34;17.30;99.90
17200;DHT22;8716;52.268;20.968;2023-05-19T14:13:02;17.30;99.90
17200;DHT22;8716;52.268;20.968;2023-05-19T14:15:52;17.30;99.90
17200;DHT22;8716;52.268;20.968;2023-05-19T14:18:20;17.20;99.90
17200;DHT22;8716;52.268;20.968;2023-05-19T14:20:48;17.20;99.90
17200;DHT22;8716;52.268;20.968;2023-05-19T14:23:17;17.20;99.90
17200;DHT22;8716;52.268;20.968;2023-05-19T14:25:47;17.20;99.90
17200;DHT22;8716;52.268;20.968;2023-05-19T14:28:15;17.10;99.90
17200;DHT22;8716;52.268;20.968;2023-05-19T14:30:47;17.00;99.90
17200;DHT22;8716;52.268;20.968;2023-05-19T14:33:16;17.00;99.90
17200;DHT22;8716;52.268;20.968;2023-05-19T14:35:45;16.90;99.90
17200;DHT22;8716;52.268;20.968;2023-05-19T14:38:14;16.90;99.90
17200;DHT22;8716;52.268;20.968;2023-05-19T14:40:43;16.90;99.90
17200;DHT22;8716;52.268;20.968;2023-05-19T14:43:11;16.80;99.90
17200;DHT22;8716;52.268;20.968;2023-05-19T14:45:40;16.80;99.90
17200;DHT22;8716;52.268;20.968;2023-05-19T14:48:08;16.70;99.90
17200;DHT22;8716;52.268;20.968;2023-05-19T14:50:39;16.70;99.90
17200;DHT22;8716;52.268;20.968;2023-05-19T14:53:08;16.60;99.90
17200;DHT22;8716;52.268;20.968;2023-05-19T14:55:36;16.60;99.90
17200;DHT22;8716;52.268;20.968;2023-05-19T14:58:05;16.50;99.90
17200;DHT22;8716;52.268;20.968;2023-05-19T15:00:52;16.50;99.90
17200;DHT22;8716;52.268;20.968;2023-05-19T15:03:23;16.50;99.90
17200;DHT22;8716;52.268;20.968;2023-05-19T15:05:53;16.50;99.90
17200;DHT22;8716;52.268;20.968;2023-05-19T15:08:21;16.50;99.90
17200;DHT22;8716;52.268;20.968;2023-05-19T15:10:50;16.50;99.90
17200;DHT22;8716;52.268;20.968;2023-05-19T15:13:18;16.50;99.90
17200;DHT22;8716;52.268;20.968;2023-05-19T15:15:47;16.50;99.90
17200;DHT22;8716;52.268;20.968;2023-05-19T15:18:15;16.50;99.90
17200;DHT22;8716;52.268;20.968;2023-05-19T15:20:44;16.50;99.90
17200;DHT22;8716;52.268;20.968;2023-05-19T15:23:14;16.50;99.90
17200;DHT22;8716;52.268;20.968;2023-05-19T15:25:48;16.50;99.90
17200;DHT22;8716;52.268;20.968;2023-05-19T15:28:18;16.50;99.90
17200;DHT22;8716;52.268;20.968;2023-05-19T15:30:46;16.50;99.90
17200;DHT22;8716;52.268;20.968;2023-05-19T15:33:15;16.50;99.90
17200;DHT22;8716;52.268;20.968;2023-05-19T15:35:43;16.50;99.90
17200;DHT22;8716;52.268;20.968;2023-05-19T15:38:15;16.50;99.90
17200;DHT22;8716;52.268;20.968;2023-05-19T15:40:44;16.50;99.90
17200;DHT22;8716;52.268;20.968;2023-05-19T15:43:16;16.50;99.90
17200;DHT22;8716;52.268;20.968;2023-05-19T15:45:45;16.40;99.90
17200;DHT22;8716;52.268;20.968;2023-05-19T15:48:14;16.40;99.90
17200;DHT22;8716;52.268;20.968;2023-05-19T15:50:42;16.40;99.90
17200;DHT22;8716;52.268;20.968;2023-05-19T15:53:11;16.40;99.90
17200;DHT22;8716;52.268;20.968;2023-05-19T15:55:40;16.30;99.90